createdAt,value
2019-05-03T00:01:54.055Z,999.61
2019-05-03T00:05:02.407Z,999.64
2019-05-03T00:07:54.008Z,999.70
2019-05-03T00:10:53.949Z,999.70
2019-05-03T00:13:53.930Z,999.79
2019-05-03T00:16:55.398Z,999.71
2019-05-03T00:19:53.866Z,999.74
2019-05-03T00:22:53.818Z,999.70
2019-05-03T00:25:53.798Z,999.76
2019-05-03T00:28:53.768Z,999.78
2019-05-03T00:31:53.725Z,999.73
2019-05-03T00:34:53.704Z,999.76
2019-05-03T00:37:53.667Z,999.72
2019-05-03T00:40:53.641Z,999.70
2019-05-03T00:43:53.617Z,999.72
2019-05-03T00:46:53.562Z,999.72
2019-05-03T00:49:53.540Z,999.66
2019-05-03T00:52:53.496Z,999.67
2019-05-03T00:55:53.475Z,999.61
2019-05-03T00:58:53.432Z,999.60
2019-05-03T01:01:53.414Z,999.57
2019-05-03T01:04:53.380Z,999.57
2019-05-03T01:07:53.337Z,999.62
2019-05-03T01:10:53.315Z,999.61
2019-05-03T01:13:53.271Z,999.63
2019-05-03T01:16:53.263Z,999.52
2019-05-03T01:19:53.207Z,999.62
2019-05-03T01:22:53.185Z,999.64
2019-05-03T01:25:53.152Z,999.68
2019-05-03T01:28:53.116Z,999.73
2019-05-03T01:31:53.091Z,999.75
2019-05-03T01:34:53.045Z,999.68
2019-05-03T01:37:53.024Z,999.78
2019-05-03T01:40:52.980Z,999.81
2019-05-03T01:43:52.960Z,999.74
2019-05-03T01:46:52.934Z,999.79
2019-05-03T01:49:52.887Z,999.77
2019-05-03T01:52:52.862Z,999.78
2019-05-03T01:55:52.837Z,999.87
2019-05-03T01:58:52.803Z,999.88
2019-05-03T02:01:52.755Z,999.96
2019-05-03T02:04:53.403Z,999.91
2019-05-03T02:07:52.699Z,999.95
2019-05-03T02:10:52.655Z,1000.02
2019-05-03T02:13:52.635Z,999.98
2019-05-03T02:16:52.593Z,999.98
2019-05-03T02:19:52.947Z,1000.04
2019-05-03T02:22:52.529Z,1000.12
2019-05-03T02:25:56.813Z,1000.09
2019-05-03T02:28:53.461Z,1000.11
2019-05-03T02:31:53.437Z,1000.12
2019-05-03T02:34:53.472Z,1000.13
2019-05-03T02:37:53.159Z,1000.17
2019-05-03T02:40:53.263Z,1000.19
2019-05-03T02:43:52.301Z,1000.27
2019-05-03T02:46:52.281Z,1000.33
2019-05-03T02:49:52.240Z,1000.28
2019-05-03T02:52:52.217Z,1000.28
2019-05-03T02:55:52.172Z,1000.26
2019-05-03T02:58:52.155Z,1000.29
2019-05-03T03:01:52.120Z,1000.33
2019-05-03T03:04:52.076Z,1000.32
2019-05-03T03:07:52.057Z,1000.33
2019-05-03T03:10:52.009Z,1000.38
2019-05-03T03:13:51.989Z,1000.38
2019-05-03T03:16:51.970Z,1000.40
2019-05-03T03:19:51.914Z,1000.45
2019-05-03T03:22:51.894Z,1000.40
2019-05-03T03:25:51.849Z,1000.39
2019-05-03T03:28:51.830Z,1000.41
2019-05-03T03:31:51.830Z,1000.33
2019-05-03T03:34:56.850Z,1000.47
2019-05-03T03:37:55.643Z,1000.44
2019-05-03T03:40:55.336Z,1000.46
2019-05-03T03:43:55.538Z,1000.50
2019-05-03T03:46:51.619Z,1000.55
2019-05-03T03:49:51.606Z,1000.58
2019-05-03T03:52:51.559Z,1000.71
2019-05-03T03:55:51.538Z,1000.63
2019-05-03T03:58:51.504Z,1000.73
2019-05-03T04:01:51.476Z,1000.85
2019-05-03T04:04:51.446Z,1000.86
2019-05-03T04:07:51.396Z,1000.82
2019-05-03T04:10:51.377Z,1000.86
2019-05-03T04:13:51.332Z,1000.97
2019-05-03T04:16:51.311Z,1000.99
2019-05-03T04:19:51.272Z,1001.06
2019-05-03T04:22:51.246Z,1001.01
2019-05-03T04:25:51.221Z,1001.04
2019-05-03T04:28:51.184Z,1001.07
2019-05-03T04:31:51.136Z,1001.17
2019-05-03T04:34:51.126Z,1001.15
2019-05-03T04:37:51.087Z,1001.24
2019-05-03T04:40:51.055Z,1001.22
2019-05-03T04:43:51.019Z,1001.31
2019-05-03T04:46:50.980Z,1001.36
2019-05-03T04:49:50.954Z,1001.41
2019-05-03T04:52:50.912Z,1001.36
2019-05-03T04:55:50.894Z,1001.36
2019-05-03T04:58:50.851Z,1001.47
2019-05-03T05:01:50.821Z,1001.58
2019-05-03T05:04:50.784Z,1001.57
2019-05-03T05:07:50.743Z,1001.46
2019-05-03T05:10:50.718Z,1001.57
2019-05-03T05:13:50.678Z,1001.62
2019-05-03T05:16:50.666Z,1001.74
2019-05-03T05:19:50.612Z,1001.70
2019-05-03T05:22:50.593Z,1001.73
2019-05-03T05:25:50.559Z,1001.72
2019-05-03T05:28:50.518Z,1001.80
2019-05-03T05:31:50.494Z,1001.89
2019-05-03T05:34:50.455Z,1001.88
2019-05-03T05:37:50.429Z,1001.93
2019-05-03T05:40:50.402Z,1001.91
2019-05-03T05:43:50.354Z,1001.94
2019-05-03T05:46:50.333Z,1002.09
2019-05-03T05:49:50.288Z,1002.11
2019-05-03T05:52:50.292Z,1002.12
2019-05-03T05:55:50.224Z,1002.19
2019-05-03T05:58:50.207Z,1002.06
2019-05-03T06:01:50.171Z,1002.31
2019-05-03T06:04:50.129Z,1002.29
2019-05-03T06:07:50.108Z,1002.33
2019-05-03T06:10:50.066Z,1002.23
2019-05-03T06:13:50.047Z,1002.36
2019-05-03T06:16:50.010Z,1002.38
2019-05-03T06:19:49.983Z,1002.50
2019-05-03T06:22:49.951Z,1002.54
2019-05-03T06:25:49.902Z,1002.55
2019-05-03T06:28:49.878Z,1002.45
2019-05-03T06:31:49.836Z,1002.51
2019-05-03T06:34:49.817Z,1002.42
2019-05-03T06:37:49.790Z,1002.51
2019-05-03T06:40:50.582Z,1002.35
2019-05-03T06:43:49.743Z,1002.35
2019-05-03T06:46:49.677Z,1002.47
2019-05-03T06:49:49.654Z,1002.59
2019-05-03T06:52:49.616Z,1002.62
2019-05-03T06:55:49.645Z,1002.56
2019-05-03T06:58:49.579Z,1002.62
2019-05-03T07:01:49.529Z,1002.37
2019-05-03T07:04:49.491Z,1002.70
2019-05-03T07:07:49.453Z,1002.49
2019-05-03T07:10:49.484Z,1002.56
2019-05-03T07:13:49.384Z,1002.51
2019-05-03T07:18:35.131Z,1002.82
2019-05-03T07:21:35.281Z,1002.80
2019-05-03T07:24:37.586Z,1002.76
2019-05-03T07:27:34.980Z,1002.54
2019-05-03T07:30:35.123Z,1002.78
2019-05-03T07:33:34.671Z,1002.45
2019-05-03T07:36:33.038Z,1002.51
2019-05-03T07:39:34.845Z,1002.74
2019-05-03T07:42:34.698Z,1002.50
2019-05-03T07:45:32.948Z,1002.51
2019-05-03T07:48:32.893Z,1002.63
2019-05-03T07:51:34.847Z,1002.45
2019-05-03T07:54:34.786Z,1002.41
2019-05-03T07:57:32.811Z,1002.76
2019-05-03T08:00:34.361Z,1002.45
2019-05-03T08:03:34.690Z,1002.35
2019-05-03T08:06:34.593Z,1002.36
2019-05-03T08:09:34.865Z,1002.46
2019-05-03T08:12:34.802Z,1002.53
2019-05-03T08:15:34.685Z,1002.79
2019-05-03T08:18:32.575Z,1002.71
2019-05-03T08:21:32.544Z,1002.48
2019-05-03T08:24:34.661Z,1002.44
2019-05-03T08:27:32.469Z,1002.60
2019-05-03T08:30:32.450Z,1002.47
2019-05-03T08:33:32.424Z,1002.46
2019-05-03T08:36:32.373Z,1002.52
2019-05-03T08:39:32.350Z,1002.49
2019-05-03T08:42:32.327Z,1002.92
2019-05-03T08:45:32.269Z,1002.53
2019-05-03T08:48:32.268Z,1002.57
2019-05-03T08:51:32.204Z,1002.55
2019-05-03T08:54:32.195Z,1002.46
2019-05-03T08:57:32.138Z,1002.56
2019-05-03T09:00:32.116Z,1002.53
2019-05-03T09:03:32.090Z,1002.59
2019-05-03T09:06:32.050Z,1002.57
2019-05-03T09:09:32.009Z,1002.56
2019-05-03T09:12:31.993Z,1002.57
2019-05-03T09:15:31.944Z,1002.50
2019-05-03T09:18:31.932Z,1002.45
2019-05-03T09:21:31.888Z,1002.51
2019-05-03T09:24:31.850Z,1002.45
2019-05-03T09:27:31.848Z,1002.79
2019-05-03T09:30:31.775Z,1002.85
2019-05-03T09:33:31.765Z,1002.51
2019-05-03T09:36:31.717Z,1002.45
2019-05-03T09:39:31.692Z,1002.41
2019-05-03T09:42:31.648Z,1002.44
2019-05-03T09:45:31.620Z,1002.48
2019-05-03T09:48:31.580Z,1002.38
2019-05-03T09:51:31.561Z,1002.47
2019-05-03T09:54:31.528Z,1002.47
2019-05-03T09:57:31.500Z,1002.84
2019-05-03T10:00:31.462Z,1002.79
2019-05-03T10:03:31.431Z,1002.71
2019-05-03T10:06:31.405Z,1002.74
2019-05-03T10:09:31.353Z,1002.33
2019-05-03T10:12:31.335Z,1002.33
2019-05-03T10:15:31.300Z,1002.34
2019-05-03T10:18:31.266Z,1002.35
2019-05-03T10:21:31.264Z,1002.32
2019-05-03T10:24:31.188Z,1002.52
2019-05-03T10:27:31.168Z,1002.44
2019-05-03T10:30:31.129Z,1002.40
2019-05-03T10:33:31.107Z,1002.49
2019-05-03T10:36:31.068Z,1002.21
2019-05-03T10:39:31.050Z,1002.24
2019-05-03T10:42:30.996Z,1002.14
2019-05-03T10:45:30.987Z,1002.21
2019-05-03T10:48:30.926Z,1002.11
2019-05-03T10:51:30.921Z,1002.19
2019-05-03T10:54:30.875Z,1002.22
2019-05-03T10:57:30.853Z,1002.20
2019-05-03T11:00:52.746Z,1002.22
2019-05-03T11:03:31.766Z,1002.20
2019-05-03T11:06:30.746Z,1002.60
2019-05-03T11:09:30.699Z,1002.60
2019-05-03T11:12:30.686Z,1002.52
2019-05-03T11:15:30.637Z,1002.13
2019-05-03T11:18:30.614Z,1002.46
2019-05-03T11:21:31.101Z,1002.45
2019-05-03T11:24:30.549Z,1002.20
2019-05-03T11:27:30.532Z,1002.10
2019-05-03T11:30:30.479Z,1002.15
2019-05-03T11:33:30.453Z,1002.03
2019-05-03T11:36:31.853Z,1002.09
2019-05-03T11:39:30.389Z,1002.03
2019-05-03T11:42:30.374Z,1002.08
2019-05-03T11:45:30.310Z,1002.12
2019-05-03T11:48:30.309Z,1002.17
2019-05-03T11:51:30.257Z,1002.10
2019-05-03T11:54:30.224Z,1002.16
2019-05-03T11:57:30.202Z,1002.29
2019-05-03T12:00:30.184Z,1002.26
2019-05-03T12:03:30.116Z,1002.16
2019-05-03T12:06:30.096Z,1002.04
2019-05-03T12:09:30.048Z,1002.07
2019-05-03T12:12:30.032Z,1002.10
2019-05-03T12:15:30.035Z,1001.99
2019-05-03T12:18:29.980Z,1001.95
2019-05-03T12:21:31.198Z,1001.98
2019-05-03T12:24:30.701Z,1001.98
2019-05-03T12:27:29.863Z,1001.99
2019-05-03T12:30:29.836Z,1001.91
2019-05-03T12:33:29.812Z,1001.91
2019-05-03T12:36:29.754Z,1002.08
2019-05-03T12:39:30.741Z,1001.93
2019-05-03T12:42:30.697Z,1001.86
2019-05-03T12:45:29.679Z,1001.86
2019-05-03T12:48:29.666Z,1001.83
2019-05-03T12:51:29.603Z,1001.83
2019-05-03T12:54:29.572Z,1001.83
2019-05-03T12:57:29.529Z,1001.85
2019-05-03T13:00:29.507Z,1001.81
2019-05-03T13:03:30.421Z,1001.78
2019-05-03T13:06:29.446Z,1001.76
2019-05-03T13:09:29.404Z,1001.78
2019-05-03T13:12:29.374Z,1001.71
2019-05-03T13:15:29.333Z,1001.64
2019-05-03T13:18:29.318Z,1001.56
2019-05-03T13:21:29.279Z,1001.47
2019-05-03T13:24:29.243Z,1001.43
2019-05-03T13:27:29.203Z,1001.48
2019-05-03T13:30:29.193Z,1001.52
2019-05-03T13:33:36.195Z,1001.42
2019-05-03T13:36:29.114Z,1001.30
2019-05-03T13:39:29.068Z,1001.30
2019-05-03T13:42:29.051Z,1001.31
2019-05-03T13:45:29.029Z,1001.25
2019-05-03T13:48:41.510Z,1001.21
2019-05-03T13:51:29.950Z,1001.30
2019-05-03T13:54:28.912Z,1001.36
2019-05-03T13:57:28.887Z,1001.26
2019-05-03T14:00:28.840Z,1001.26
2019-05-03T14:03:28.825Z,1001.29
2019-05-03T14:06:28.790Z,1001.18
2019-05-03T14:09:28.752Z,1001.15
2019-05-03T14:12:28.737Z,1001.15
2019-05-03T14:15:28.694Z,1001.06
2019-05-03T14:18:28.646Z,1001.14
2019-05-03T14:21:28.627Z,1001.05
2019-05-03T14:24:28.596Z,1001.13
2019-05-03T14:27:28.550Z,1001.05
2019-05-03T14:30:28.527Z,1001.02
2019-05-03T14:33:28.503Z,1000.88
2019-05-03T14:36:28.461Z,1000.86
2019-05-03T14:39:28.436Z,1000.85
2019-05-03T14:42:28.387Z,1000.85
2019-05-03T14:45:28.370Z,1000.82
2019-05-03T14:48:28.334Z,1000.72
2019-05-03T14:51:28.286Z,1000.71
2019-05-03T14:54:28.272Z,1000.72
2019-05-03T14:57:28.302Z,1000.67
2019-05-03T15:00:28.198Z,1000.68
2019-05-03T15:03:28.186Z,1000.63
2019-05-03T15:06:28.141Z,1000.59
2019-05-03T15:09:28.092Z,1000.62
2019-05-03T15:12:28.077Z,1000.60
2019-05-03T15:15:28.905Z,1000.60
2019-05-03T15:18:28.004Z,1000.58
2019-05-03T15:21:27.967Z,1000.55
2019-05-03T15:24:27.940Z,1000.57
2019-05-03T15:27:27.905Z,1000.62
2019-05-03T15:30:27.858Z,1000.61
2019-05-03T15:33:28.991Z,1000.62
2019-05-03T15:36:27.815Z,1000.58
2019-05-03T15:39:27.787Z,1000.60
2019-05-03T15:42:27.736Z,1000.51
2019-05-03T15:45:27.712Z,1000.45
2019-05-03T15:48:27.681Z,1000.52
2019-05-03T15:51:27.634Z,1000.47
2019-05-03T15:54:27.605Z,1000.47
2019-05-03T15:57:27.591Z,1000.44
2019-05-03T16:00:27.549Z,1000.48
2019-05-03T16:03:27.509Z,1000.40
2019-05-03T16:06:27.473Z,1000.40
2019-05-03T16:09:27.454Z,1000.32
2019-05-03T16:12:27.402Z,1000.37
2019-05-03T16:15:27.382Z,1000.33
2019-05-03T16:18:27.361Z,1000.25
2019-05-03T16:21:27.308Z,1000.32
2019-05-03T16:24:27.282Z,1000.23
2019-05-03T16:27:27.261Z,1000.19
2019-05-03T16:30:27.228Z,1000.18
2019-05-03T16:33:28.293Z,1000.08
2019-05-03T16:36:27.154Z,1000.08
2019-05-03T16:39:27.114Z,1000.13
2019-05-03T16:42:27.074Z,1000.06
2019-05-03T16:45:27.057Z,1000.12
2019-05-03T16:48:27.008Z,1000.12
2019-05-03T16:51:26.988Z,1000.09
2019-05-03T16:54:26.945Z,1000.04
2019-05-03T16:57:26.923Z,1000.07
2019-05-03T17:00:26.891Z,1000.06
2019-05-03T17:03:38.137Z,1000.02
2019-05-03T17:06:27.810Z,1000.09
2019-05-03T17:09:26.812Z,1000.10
2019-05-03T17:12:26.758Z,1000.09
2019-05-03T17:15:26.722Z,1000.04
2019-05-03T17:18:26.693Z,1000.08
2019-05-03T17:21:26.698Z,1000.14
2019-05-03T17:24:26.611Z,1000.14
2019-05-03T17:27:26.599Z,1000.05
2019-05-03T17:30:34.087Z,1000.10
2019-05-03T17:33:27.532Z,1000.14
2019-05-03T17:36:26.493Z,1000.03
2019-05-03T17:39:26.461Z,1000.10
2019-05-03T17:42:26.435Z,1000.05
2019-05-03T17:45:26.420Z,1000.08
2019-05-03T17:48:26.349Z,1000.10
2019-05-03T17:51:26.331Z,1000.12
2019-05-03T17:54:26.307Z,1000.06
2019-05-03T17:57:26.268Z,1000.02
2019-05-03T18:00:26.218Z,1000.00
2019-05-03T18:03:26.199Z,1000.00
2019-05-03T18:06:26.152Z,999.97
2019-05-03T18:09:26.154Z,1000.01
2019-05-03T18:12:26.083Z,1000.04
2019-05-03T18:15:26.063Z,999.97
2019-05-03T18:18:26.050Z,999.93
2019-05-03T18:21:25.986Z,999.92
2019-05-03T18:24:25.987Z,999.94
2019-05-03T18:27:25.930Z,999.96
2019-05-03T18:30:25.901Z,999.89
2019-05-03T18:33:25.857Z,999.96
2019-05-03T18:36:25.837Z,999.93
2019-05-03T18:39:25.812Z,999.94
2019-05-03T18:42:25.764Z,999.99
2019-05-03T18:45:25.742Z,1000.02
2019-05-03T18:48:26.523Z,1000.03
2019-05-03T18:51:25.675Z,1000.02
2019-05-03T18:54:25.655Z,1000.01
2019-05-03T18:57:25.731Z,1000.05
2019-05-03T19:00:25.568Z,1000.01
2019-05-03T19:03:25.541Z,1000.06
2019-05-03T19:06:25.512Z,1000.09
2019-05-03T19:09:25.465Z,1000.07
2019-05-03T19:12:26.445Z,1000.04
2019-05-03T19:15:25.405Z,1000.05
2019-05-03T19:18:25.379Z,1000.07
2019-05-03T19:21:25.347Z,1000.08
2019-05-03T19:24:25.302Z,1000.09
2019-05-03T19:27:25.318Z,1000.12
2019-05-03T19:30:25.232Z,1000.13
2019-05-03T19:33:32.257Z,1000.27
2019-05-03T19:36:25.194Z,1000.18
2019-05-03T19:39:25.335Z,1000.14
2019-05-03T19:42:27.368Z,1000.09
2019-05-03T19:45:25.071Z,1000.09
2019-05-03T19:48:25.689Z,1000.11
2019-05-03T19:51:25.011Z,1000.10
2019-05-03T19:54:24.990Z,1000.15
2019-05-03T19:57:24.948Z,1000.08
2019-05-03T20:00:25.546Z,1000.01
2019-05-03T20:03:24.878Z,999.98
2019-05-03T20:06:25.269Z,1000.03
2019-05-03T20:09:24.829Z,999.97
2019-05-03T20:12:24.772Z,1000.02
2019-05-03T20:15:24.748Z,1000.09
2019-05-03T20:18:24.779Z,1000.04
2019-05-03T20:21:25.239Z,1000.00
2019-05-03T20:24:25.350Z,1000.04
2019-05-03T20:27:24.607Z,1000.00
2019-05-03T20:30:25.473Z,1000.03
2019-05-03T20:33:24.726Z,1000.05
2019-05-03T20:36:24.525Z,1000.03
2019-05-03T20:39:25.403Z,999.99
2019-05-03T20:42:24.708Z,1000.00
2019-05-03T20:45:24.880Z,1000.00
2019-05-03T20:48:25.041Z,1000.00
2019-05-03T20:51:25.187Z,999.95
2019-05-03T20:54:24.317Z,1000.00
2019-05-03T20:57:24.758Z,999.98
2019-05-03T21:00:25.613Z,1000.04
2019-05-03T21:03:24.824Z,1000.08
2019-05-03T21:06:35.202Z,1000.06
2019-05-03T21:09:25.159Z,1000.02
2019-05-03T21:12:25.243Z,999.98
2019-05-03T21:15:24.709Z,999.93
2019-05-03T21:18:24.399Z,999.97
2019-05-03T21:21:24.893Z,1000.00
2019-05-03T21:24:26.033Z,999.94
2019-05-03T21:27:24.713Z,999.94
2019-05-03T21:30:24.676Z,999.91
2019-05-03T21:33:25.771Z,999.90
2019-05-03T21:36:25.488Z,999.89
2019-05-03T21:39:24.728Z,999.90
2019-05-03T21:42:23.789Z,999.89
2019-05-03T21:45:24.711Z,999.82
2019-05-03T21:48:24.978Z,999.77
2019-05-03T21:51:24.485Z,999.81
2019-05-03T21:54:24.608Z,999.73
2019-05-03T21:57:25.298Z,999.83
2019-05-03T22:00:23.597Z,999.78
2019-05-03T22:03:25.234Z,999.72
2019-05-03T22:06:24.682Z,999.76
2019-05-03T22:09:23.503Z,999.76
2019-05-03T22:12:24.850Z,999.76
2019-05-03T22:15:23.422Z,999.72
2019-05-03T22:18:24.715Z,999.82
2019-05-03T22:21:23.375Z,999.81
2019-05-03T22:24:25.132Z,999.68
2019-05-03T22:27:24.639Z,999.67
2019-05-03T22:30:24.316Z,999.65
2019-05-03T22:33:23.229Z,999.75
2019-05-03T22:36:24.562Z,999.68
2019-05-03T22:39:24.932Z,999.71
2019-05-03T22:42:25.167Z,999.69
2019-05-03T22:45:23.104Z,999.74
2019-05-03T22:48:24.985Z,999.63
2019-05-03T22:51:24.470Z,999.71
2019-05-03T22:54:24.575Z,999.73
2019-05-03T22:57:24.552Z,999.81
2019-05-03T23:00:25.033Z,999.76
2019-05-03T23:03:24.876Z,999.72
2019-05-03T23:06:25.048Z,999.73
2019-05-03T23:09:24.751Z,999.71
2019-05-03T23:12:22.809Z,999.64
2019-05-03T23:15:24.408Z,999.69
2019-05-03T23:18:24.707Z,999.66
2019-05-03T23:21:24.396Z,999.58
2019-05-03T23:24:24.579Z,999.55
2019-05-03T23:27:24.843Z,999.48
2019-05-03T23:30:24.738Z,999.46
2019-05-03T23:33:22.577Z,999.36
2019-05-03T23:36:32.768Z,999.39
2019-05-03T23:39:24.963Z,999.37
2019-05-03T23:42:24.360Z,999.35
2019-05-03T23:45:22.457Z,999.29
2019-05-03T23:48:22.409Z,999.27
2019-05-03T23:51:22.389Z,999.25
2019-05-03T23:54:24.509Z,999.26
2019-05-03T23:57:22.333Z,999.20
